createdAt,value
2018-07-28T00:00:29.538Z,79.10
2018-07-28T00:05:26.548Z,78.70
2018-07-28T00:07:55.299Z,80.00
2018-07-28T00:10:24.061Z,79.40
2018-07-28T00:12:52.941Z,80.80
2018-07-28T00:15:21.561Z,80.30
2018-07-28T00:17:50.247Z,81.00
2018-07-28T00:20:19.044Z,81.30
2018-07-28T00:22:47.714Z,81.50
2018-07-28T00:25:16.494Z,82.70
2018-07-28T00:27:45.228Z,84.70
2018-07-28T00:30:13.961Z,85.70
2018-07-28T00:32:42.654Z,85.40
2018-07-28T00:35:11.461Z,87.50
2018-07-28T00:37:40.155Z,86.80
2018-07-28T00:40:09.150Z,87.40
2018-07-28T00:42:38.189Z,89.40
2018-07-28T00:45:07.636Z,88.80
2018-07-28T00:47:36.540Z,90.00
2018-07-28T00:50:06.740Z,89.00
2018-07-28T00:52:35.401Z,90.30
2018-07-28T00:57:32.449Z,90.10
2018-07-28T01:00:01.188Z,90.80
2018-07-28T01:02:29.928Z,90.60
2018-07-28T01:04:58.594Z,90.60
2018-07-28T01:07:27.396Z,91.90
2018-07-28T01:09:56.113Z,91.40
2018-07-28T01:12:24.957Z,91.30
2018-07-28T01:14:53.747Z,90.40
2018-07-28T01:17:22.456Z,89.80
2018-07-28T01:19:51.116Z,89.00
2018-07-28T01:22:19.830Z,87.90
2018-07-28T01:27:16.913Z,85.70
2018-07-28T01:29:45.557Z,84.10
2018-07-28T01:32:14.222Z,83.80
2018-07-28T01:34:42.931Z,84.80
2018-07-28T01:37:11.692Z,82.90
2018-07-28T01:39:40.423Z,82.80
2018-07-28T01:42:09.446Z,82.90
2018-07-28T01:44:38.236Z,82.50
2018-07-28T01:47:07.764Z,83.00
2018-07-28T01:49:36.475Z,83.00
2018-07-28T01:52:06.093Z,83.00
2018-07-28T01:54:34.819Z,83.50
2018-07-28T01:57:04.536Z,85.30
2018-07-28T01:59:33.274Z,84.60
2018-07-28T02:02:01.946Z,84.20
2018-07-28T02:04:30.742Z,84.50
2018-07-28T02:09:27.711Z,85.50
2018-07-28T02:11:56.484Z,84.60
2018-07-28T02:14:25.197Z,84.50
2018-07-28T02:19:24.251Z,84.00
2018-07-28T02:21:53.034Z,83.70
2018-07-28T02:24:21.732Z,83.20
2018-07-28T02:26:50.390Z,83.90
2018-07-28T02:31:48.494Z,82.80
2018-07-28T02:34:17.256Z,82.80
2018-07-28T02:36:46.076Z,86.00
2018-07-28T02:39:14.784Z,87.20
2018-07-28T02:41:43.602Z,87.50
2018-07-28T02:44:12.241Z,84.80
2018-07-28T02:46:40.999Z,85.50
2018-07-28T02:49:09.709Z,85.10
2018-07-28T02:51:39.517Z,84.50
2018-07-28T02:54:08.212Z,84.30
2018-07-28T02:56:37.023Z,84.40
2018-07-28T02:59:05.798Z,84.40
2018-07-28T03:01:34.478Z,84.30
2018-07-28T03:04:03.419Z,82.60
2018-07-28T03:06:32.085Z,82.60
2018-07-28T03:09:01.844Z,82.60
2018-07-28T03:11:30.619Z,82.70
2018-07-28T03:13:59.403Z,82.60
2018-07-28T03:18:56.544Z,81.40
2018-07-28T03:21:25.294Z,81.50
2018-07-28T03:23:54.066Z,81.70
2018-07-28T03:26:23.558Z,81.40
2018-07-28T03:28:52.249Z,81.60
2018-07-28T03:31:21.145Z,82.50
2018-07-28T03:33:51.079Z,85.70
2018-07-28T03:36:19.736Z,84.80
2018-07-28T03:38:49.544Z,86.00
2018-07-28T03:41:18.229Z,87.90
2018-07-28T03:43:46.995Z,90.00
2018-07-28T03:46:15.744Z,88.70
2018-07-28T03:48:44.483Z,87.80
2018-07-28T03:51:13.155Z,88.80
2018-07-28T03:53:41.811Z,88.10
2018-07-28T03:56:10.594Z,88.70
2018-07-28T03:58:40.330Z,90.10
2018-07-28T04:01:09.071Z,90.00
2018-07-28T04:03:37.791Z,90.00
2018-07-28T04:06:06.520Z,90.20
2018-07-28T04:08:35.314Z,89.00
2018-07-28T04:16:00.655Z,90.10
2018-07-28T04:18:29.399Z,88.40
2018-07-28T04:21:01.119Z,87.80
2018-07-28T04:23:29.832Z,85.20
2018-07-28T04:25:58.526Z,83.90
2018-07-28T04:28:27.304Z,83.20
2018-07-28T04:30:55.944Z,82.00
2018-07-28T04:33:24.720Z,80.60
2018-07-28T04:35:53.528Z,80.80
2018-07-28T04:38:22.227Z,79.80
2018-07-28T04:40:50.929Z,77.30
2018-07-28T04:43:19.613Z,78.40
2018-07-28T04:45:48.304Z,76.90
2018-07-28T04:48:16.986Z,75.30
2018-07-28T04:50:45.672Z,73.80
2018-07-28T04:53:14.446Z,73.60
2018-07-28T04:55:43.398Z,72.10
2018-07-28T04:58:12.092Z,70.70
2018-07-28T05:00:40.871Z,70.00
2018-07-28T05:03:10.711Z,68.50
2018-07-28T05:05:39.472Z,66.50
2018-07-28T05:08:08.180Z,65.00
2018-07-28T05:10:36.930Z,69.70
2018-07-28T05:13:05.790Z,67.00
2018-07-28T05:15:34.787Z,66.00
2018-07-28T05:18:03.540Z,65.90
2018-07-28T05:20:33.215Z,64.50
2018-07-28T05:23:02.499Z,62.80
2018-07-28T05:25:31.224Z,63.40
2018-07-28T05:28:01.022Z,63.10
2018-07-28T05:30:29.762Z,65.10
2018-07-28T05:32:58.542Z,68.10
2018-07-28T05:35:27.200Z,69.40
2018-07-28T05:37:55.991Z,68.90
2018-07-28T05:40:25.366Z,67.90
2018-07-28T05:42:54.082Z,69.70
2018-07-28T05:45:22.794Z,70.80
2018-07-28T05:47:52.848Z,71.60
2018-07-28T05:50:21.542Z,72.20
2018-07-28T05:52:51.253Z,73.40
2018-07-28T05:55:19.981Z,81.00
2018-07-28T05:57:49.783Z,81.40
2018-07-28T06:00:18.739Z,81.50
2018-07-28T06:02:47.481Z,82.20
2018-07-28T06:05:17.466Z,82.20
2018-07-28T06:07:47.905Z,89.80
2018-07-28T06:10:16.646Z,92.00
2018-07-28T06:12:45.754Z,87.20
2018-07-28T06:15:14.509Z,90.90
2018-07-28T06:17:43.235Z,79.60
2018-07-28T06:20:11.943Z,83.30
2018-07-28T06:22:40.807Z,88.60
2018-07-28T06:25:10.407Z,87.50
2018-07-28T06:27:39.196Z,86.50
2018-07-28T06:30:09.954Z,83.20
2018-07-28T06:32:39.180Z,79.80
2018-07-28T06:35:08.092Z,81.60
2018-07-28T06:37:37.491Z,81.50
2018-07-28T06:40:06.729Z,75.60
2018-07-28T06:42:36.493Z,70.00
2018-07-28T06:45:06.495Z,70.00
2018-07-28T06:47:35.206Z,68.50
2018-07-28T06:50:03.918Z,67.30
2018-07-28T06:52:32.756Z,65.90
2018-07-28T06:55:01.493Z,66.10
2018-07-28T06:57:30.213Z,66.30
2018-07-28T06:59:58.948Z,65.80
2018-07-28T07:02:27.691Z,66.30
2018-07-28T07:04:56.511Z,65.10
2018-07-28T07:07:25.221Z,61.90
2018-07-28T07:09:54.016Z,61.90
2018-07-28T07:12:22.718Z,61.60
2018-07-28T07:14:51.524Z,63.20
2018-07-28T07:17:20.231Z,63.50
2018-07-28T07:19:48.955Z,63.50
2018-07-28T07:22:18.647Z,60.20
2018-07-28T07:24:47.455Z,58.50
2018-07-28T07:27:16.103Z,56.20
2018-07-28T07:29:44.994Z,55.80
2018-07-28T07:32:13.646Z,58.30
2018-07-28T07:34:42.313Z,60.80
2018-07-28T07:37:11.092Z,62.70
2018-07-28T07:39:39.833Z,64.80
2018-07-28T07:44:37.047Z,79.40
2018-07-28T07:47:05.980Z,84.30
2018-07-28T07:49:34.756Z,86.80
2018-07-28T07:52:03.529Z,84.10
2018-07-28T07:54:32.334Z,84.60
2018-07-28T07:57:01.059Z,86.50
2018-07-28T07:59:30.133Z,87.70
2018-07-28T08:01:59.933Z,91.90
2018-07-28T08:04:28.663Z,90.80
2018-07-28T08:06:58.111Z,91.80
2018-07-28T08:09:26.897Z,94.70
2018-07-28T08:11:56.424Z,92.50
2018-07-28T08:14:25.110Z,93.00
2018-07-28T08:16:53.764Z,92.00
2018-07-28T08:19:23.470Z,91.60
2018-07-28T08:21:54.227Z,93.00
2018-07-28T08:24:22.949Z,94.50
2018-07-28T08:26:51.754Z,94.70
2018-07-28T08:29:20.417Z,96.40
2018-07-28T08:31:49.160Z,95.10
2018-07-28T08:34:17.866Z,95.20
2018-07-28T08:36:46.545Z,96.00
2018-07-28T08:39:15.753Z,95.80
2018-07-28T08:41:45.137Z,92.60
2018-07-28T08:44:14.469Z,90.30
2018-07-28T08:46:43.277Z,88.50
2018-07-28T08:49:11.997Z,89.00
2018-07-28T08:51:41.744Z,90.80
2018-07-28T08:54:11.461Z,90.40
2018-07-28T08:56:40.236Z,90.30
2018-07-28T08:59:08.904Z,90.40
2018-07-28T09:01:37.601Z,90.70
2018-07-28T09:04:07.323Z,91.70
2018-07-28T09:06:36.133Z,91.90
2018-07-28T09:09:08.474Z,92.40
2018-07-28T09:11:37.274Z,92.40
2018-07-28T09:14:06.454Z,92.40
2018-07-28T09:19:03.747Z,93.10
2018-07-28T09:21:32.517Z,92.90
2018-07-28T09:24:01.278Z,92.30
2018-07-28T09:26:30.076Z,91.20
2018-07-28T09:28:58.886Z,90.90
2018-07-28T09:31:27.614Z,90.60
2018-07-28T09:33:56.510Z,89.00
2018-07-28T09:36:25.290Z,90.20
2018-07-28T09:38:54.061Z,88.20
2018-07-28T09:41:23.329Z,86.30
2018-07-28T09:43:52.286Z,88.20
2018-07-28T09:46:21.144Z,88.60
2018-07-28T09:48:50.057Z,86.30
2018-07-28T09:51:21.572Z,87.40
2018-07-28T09:53:50.412Z,83.00
2018-07-28T09:56:19.885Z,82.80
2018-07-28T09:58:49.760Z,81.40
2018-07-28T10:01:19.745Z,80.50
2018-07-28T10:03:49.464Z,74.70
2018-07-28T10:06:20.232Z,72.80
2018-07-28T10:08:49.291Z,74.60
2018-07-28T10:11:17.979Z,71.40
2018-07-28T10:13:46.860Z,69.80
2018-07-28T10:16:15.587Z,68.80
2018-07-28T10:18:44.320Z,69.30
2018-07-28T10:21:13.005Z,67.00
2018-07-28T10:23:42.728Z,65.70
2018-07-28T10:26:11.453Z,61.80
2018-07-28T10:28:40.243Z,61.90
2018-07-28T10:31:09.073Z,57.70
2018-07-28T10:33:37.976Z,59.50
2018-07-28T10:36:07.444Z,59.80
2018-07-28T10:38:36.240Z,57.20
2018-07-28T10:41:05.346Z,55.00
2018-07-28T10:43:35.070Z,55.90
2018-07-28T10:46:05.677Z,53.80
2018-07-28T10:54:17.630Z,60.90
2018-07-28T10:56:49.908Z,64.80
2018-07-28T10:59:21.226Z,66.30
2018-07-28T11:01:51.115Z,65.90
2018-07-28T11:04:22.296Z,69.20
2018-07-28T11:06:53.662Z,67.80
2018-07-28T11:09:22.437Z,68.80
2018-07-28T11:11:52.206Z,69.30
2018-07-28T11:14:22.294Z,65.60
2018-07-28T11:16:51.612Z,68.60
2018-07-28T11:19:20.334Z,70.80
2018-07-28T11:21:48.993Z,64.00
2018-07-28T11:24:17.736Z,67.10
2018-07-28T11:26:48.366Z,64.30
2018-07-28T11:29:17.913Z,62.20
2018-07-28T11:31:57.834Z,65.80
2018-07-28T11:49:26.365Z,71.50
2018-07-28T11:51:56.020Z,68.60
2018-07-28T11:54:24.709Z,68.00
2018-07-28T11:56:53.534Z,68.80
2018-07-28T11:59:22.216Z,67.10
2018-07-28T12:01:51.995Z,66.70
2018-07-28T12:04:20.850Z,67.10
2018-07-28T12:06:50.511Z,65.30
2018-07-28T12:09:19.371Z,66.10
2018-07-28T12:11:50.577Z,65.50
2018-07-28T12:14:19.168Z,63.00
2018-07-28T12:16:47.909Z,61.50
2018-07-28T12:19:16.632Z,62.10
2018-07-28T12:21:45.393Z,63.00
2018-07-28T12:26:43.388Z,65.00
2018-07-28T12:29:12.179Z,59.20
2018-07-28T12:31:40.793Z,60.60
2018-07-28T12:34:09.640Z,59.10
2018-07-28T12:36:38.479Z,60.90
2018-07-28T12:39:08.964Z,58.50
2018-07-28T12:41:37.718Z,59.00
2018-07-28T12:44:06.454Z,62.20
2018-07-28T12:46:35.214Z,63.30
2018-07-28T12:49:04.015Z,66.70
2018-07-28T12:51:32.733Z,67.30
2018-07-28T12:54:01.785Z,67.90
2018-07-28T12:56:30.517Z,68.90
2018-07-28T12:58:59.253Z,68.00
2018-07-28T13:01:27.960Z,67.80
2018-07-28T13:03:57.777Z,68.50
2018-07-28T13:06:26.506Z,68.40
2018-07-28T13:08:55.269Z,68.10
2018-07-28T13:11:24.041Z,68.00
2018-07-28T13:13:52.801Z,68.30
2018-07-28T13:16:21.577Z,70.40
2018-07-28T13:18:50.198Z,67.70
2018-07-28T13:21:18.910Z,68.10
2018-07-28T13:23:47.753Z,69.00
2018-07-28T13:26:16.554Z,69.30
2018-07-28T13:28:45.240Z,68.70
2018-07-28T13:31:13.991Z,68.70
2018-07-28T13:33:42.701Z,68.90
2018-07-28T13:36:11.475Z,68.20
2018-07-28T13:38:40.129Z,67.20
2018-07-28T13:41:08.898Z,65.80
2018-07-28T13:43:37.590Z,65.40
2018-07-28T13:46:06.344Z,66.10
2018-07-28T13:48:35.081Z,65.20
2018-07-28T13:51:03.852Z,65.50
2018-07-28T13:53:32.527Z,64.60
2018-07-28T13:56:01.606Z,65.50
2018-07-28T13:58:30.313Z,64.70
2018-07-28T14:00:59.086Z,65.90
2018-07-28T14:03:27.748Z,68.30
2018-07-28T14:05:56.616Z,66.20
2018-07-28T14:08:26.486Z,64.00
2018-07-28T14:10:55.139Z,64.50
2018-07-28T14:13:23.869Z,63.90
2018-07-28T14:15:53.469Z,65.30
2018-07-28T14:18:23.106Z,65.30
2018-07-28T14:20:51.862Z,64.40
2018-07-28T14:25:48.835Z,65.00
2018-07-28T14:28:19.584Z,64.70
2018-07-28T14:30:48.329Z,64.70
2018-07-28T14:33:17.064Z,65.80
2018-07-28T14:35:45.881Z,66.80
2018-07-28T14:38:14.579Z,65.80
2018-07-28T14:40:43.434Z,64.80
2018-07-28T14:43:12.154Z,64.70
2018-07-28T14:45:41.031Z,65.80
2018-07-28T14:48:10.754Z,65.40
2018-07-28T14:50:40.582Z,65.70
2018-07-28T14:53:09.563Z,65.40
2018-07-28T14:55:38.381Z,65.50
2018-07-28T14:58:08.300Z,66.20
2018-07-28T15:00:37.836Z,65.30
2018-07-28T15:03:10.358Z,66.80
2018-07-28T15:05:39.975Z,66.40
2018-07-28T15:08:08.688Z,66.10
2018-07-28T15:10:38.452Z,66.90
2018-07-28T15:13:07.293Z,67.30
2018-07-28T15:15:35.973Z,67.90
2018-07-28T15:18:04.828Z,68.60
2018-07-28T15:20:34.281Z,67.70
2018-07-28T15:23:04.172Z,68.30
2018-07-28T15:25:32.904Z,68.10
2018-07-28T15:28:01.659Z,68.60
2018-07-28T15:30:30.346Z,68.70
2018-07-28T15:32:59.071Z,69.10
2018-07-28T15:35:27.921Z,69.10
2018-07-28T15:37:56.619Z,68.20
2018-07-28T15:40:25.541Z,68.70
2018-07-28T15:42:54.248Z,69.10
2018-07-28T15:45:23.000Z,69.10
2018-07-28T15:47:51.943Z,70.90
2018-07-28T15:50:20.690Z,70.70
2018-07-28T15:52:49.386Z,70.70
2018-07-28T15:55:20.005Z,70.70
2018-07-28T15:57:48.746Z,71.30
2018-07-28T16:00:18.649Z,71.40
2018-07-28T16:02:48.617Z,71.80
2018-07-28T16:05:17.722Z,73.20
2018-07-28T16:07:46.843Z,74.60
2018-07-28T16:10:16.226Z,75.10
2018-07-28T16:12:45.086Z,71.50
2018-07-28T16:15:13.743Z,71.90
2018-07-28T16:17:42.521Z,71.70
2018-07-28T16:20:11.853Z,72.50
2018-07-28T16:22:40.645Z,75.90
2018-07-28T16:25:09.381Z,77.70
2018-07-28T16:27:39.077Z,78.40
2018-07-28T16:30:08.870Z,79.80
2018-07-28T16:32:37.834Z,79.80
2018-07-28T16:35:06.948Z,80.00
2018-07-28T16:37:35.742Z,79.80
2018-07-28T16:40:04.597Z,78.70
2018-07-28T16:42:33.437Z,77.50
2018-07-28T16:45:02.108Z,78.00
2018-07-28T16:47:31.719Z,79.60
2018-07-28T16:50:01.136Z,77.30
2018-07-28T16:52:29.816Z,79.30
2018-07-28T16:54:58.579Z,82.00
2018-07-28T16:57:27.220Z,83.40
2018-07-28T16:59:55.863Z,86.80
2018-07-28T17:02:24.695Z,90.30
2018-07-28T17:04:53.471Z,90.80
2018-07-28T17:07:22.141Z,90.90
2018-07-28T17:09:50.797Z,93.40
2018-07-28T17:12:19.538Z,93.70
2018-07-28T17:14:48.161Z,95.60
2018-07-28T17:17:16.804Z,99.90
2018-07-28T17:19:45.467Z,99.90
2018-07-28T17:22:14.183Z,99.90
2018-07-28T17:24:42.817Z,99.90
2018-07-28T17:27:11.557Z,99.60
2018-07-28T17:29:40.822Z,99.90
2018-07-28T17:32:09.508Z,99.90
2018-07-28T17:34:38.788Z,99.90
2018-07-28T17:37:07.837Z,99.90
2018-07-28T17:39:36.507Z,98.50
2018-07-28T17:42:05.367Z,97.70
2018-07-28T17:44:35.057Z,97.90
2018-07-28T17:47:03.849Z,99.90
2018-07-28T17:49:32.561Z,99.90
2018-07-28T17:52:01.270Z,98.60
2018-07-28T17:54:29.923Z,97.40
2018-07-28T17:56:58.664Z,97.00
2018-07-28T17:59:27.359Z,97.90
2018-07-28T18:01:56.184Z,98.80
2018-07-28T18:04:24.871Z,98.20
2018-07-28T18:06:53.655Z,99.30
2018-07-28T18:09:22.357Z,97.90
2018-07-28T18:11:51.145Z,99.90
2018-07-28T18:14:19.740Z,99.90
2018-07-28T18:16:48.486Z,99.90
2018-07-28T18:19:17.119Z,99.90
2018-07-28T18:21:45.819Z,99.90
2018-07-28T18:24:14.438Z,99.90
2018-07-28T18:26:43.632Z,99.90
2018-07-28T18:29:12.470Z,99.90
2018-07-28T18:31:41.085Z,99.90
2018-07-28T18:34:09.688Z,99.90
2018-07-28T18:36:38.325Z,99.90
2018-07-28T18:39:09.084Z,99.90
2018-07-28T18:41:37.966Z,99.90
2018-07-28T18:44:07.003Z,99.90
2018-07-28T18:46:35.723Z,99.90
2018-07-28T18:49:04.470Z,99.90
2018-07-28T18:51:33.097Z,99.90
2018-07-28T18:54:01.798Z,99.90
2018-07-28T18:56:30.445Z,99.90
2018-07-28T18:59:00.741Z,99.90
2018-07-28T19:01:29.460Z,99.90
2018-07-28T19:03:58.105Z,99.90
2018-07-28T19:06:26.879Z,99.90
2018-07-28T19:09:00.822Z,99.90
2018-07-28T19:11:29.655Z,99.90
2018-07-28T19:14:03.663Z,99.90
2018-07-28T19:16:32.318Z,99.90
2018-07-28T19:19:06.154Z,99.90
2018-07-28T19:21:34.825Z,99.90
2018-07-28T19:24:04.303Z,99.90
2018-07-28T19:26:33.083Z,99.90
2018-07-28T19:29:07.216Z,99.90
2018-07-28T19:31:35.968Z,99.90
2018-07-28T19:34:04.651Z,99.90
2018-07-28T19:36:38.587Z,99.90
2018-07-28T19:39:09.118Z,99.90
2018-07-28T19:41:43.124Z,99.90
2018-07-28T19:44:12.473Z,99.90
2018-07-28T19:46:41.213Z,99.90
2018-07-28T19:49:09.963Z,99.90
2018-07-28T19:51:38.922Z,99.90
2018-07-28T19:54:07.813Z,99.90
2018-07-28T19:56:36.540Z,99.90
2018-07-28T19:59:05.255Z,99.90
2018-07-28T20:01:33.963Z,99.90
2018-07-28T20:04:02.828Z,99.90
2018-07-28T20:06:32.148Z,99.90
2018-07-28T20:09:01.466Z,99.90
2018-07-28T20:11:30.252Z,99.90
2018-07-28T20:13:59.723Z,99.90
2018-07-28T20:16:28.415Z,99.90
2018-07-28T20:18:57.130Z,99.90
2018-07-28T20:21:25.791Z,99.90
2018-07-28T20:23:54.582Z,99.90
2018-07-28T20:26:23.347Z,99.90
2018-07-28T20:28:52.124Z,99.90
2018-07-28T20:31:20.807Z,99.90
2018-07-28T20:33:49.578Z,99.90
2018-07-28T20:36:18.424Z,99.90
2018-07-28T20:38:47.088Z,99.90
2018-07-28T20:41:15.856Z,99.90
2018-07-28T20:43:44.527Z,99.90
2018-07-28T20:46:13.787Z,99.90
2018-07-28T20:48:43.625Z,99.90
2018-07-28T20:51:12.260Z,99.90
2018-07-28T20:53:40.892Z,99.90
2018-07-28T20:56:09.674Z,99.90
2018-07-28T20:58:39.200Z,99.90
2018-07-28T21:01:08.430Z,99.90
2018-07-28T21:03:37.394Z,99.90
2018-07-28T21:06:06.219Z,99.90
2018-07-28T21:08:34.847Z,99.90
2018-07-28T21:11:03.562Z,99.90
2018-07-28T21:13:32.275Z,99.90
2018-07-28T21:16:00.889Z,99.90
2018-07-28T21:18:29.522Z,99.90
2018-07-28T21:20:58.169Z,99.90
2018-07-28T21:23:26.971Z,99.90
2018-07-28T21:25:55.659Z,99.90
2018-07-28T21:28:24.326Z,99.90
2018-07-28T21:30:52.996Z,99.90
2018-07-28T21:33:22.788Z,99.90
2018-07-28T21:35:51.394Z,99.90
2018-07-28T21:38:20.102Z,99.90
2018-07-28T21:40:48.880Z,99.90
2018-07-28T21:43:17.704Z,99.90
2018-07-28T21:45:46.371Z,99.90
2018-07-28T21:48:15.118Z,99.90
2018-07-28T21:50:43.816Z,99.90
2018-07-28T21:53:12.521Z,99.90
2018-07-28T21:55:41.259Z,99.90
2018-07-28T21:58:09.926Z,99.90
2018-07-28T22:00:43.778Z,99.90
2018-07-28T22:03:12.507Z,99.90
2018-07-28T22:05:41.125Z,99.90
2018-07-28T22:08:09.813Z,99.90
2018-07-28T22:10:39.189Z,99.90
2018-07-28T22:13:07.834Z,99.90
2018-07-28T22:15:36.680Z,99.90
2018-07-28T22:18:05.651Z,99.90
2018-07-28T22:20:34.406Z,99.90
2018-07-28T22:23:03.088Z,99.90
2018-07-28T22:25:33.869Z,99.90
2018-07-28T22:28:02.547Z,99.90
2018-07-28T22:30:31.487Z,99.90
2018-07-28T22:33:00.257Z,99.90
2018-07-28T22:35:28.889Z,99.90
2018-07-28T22:37:58.271Z,99.90
2018-07-28T22:40:26.976Z,99.90
2018-07-28T22:42:55.618Z,99.90
2018-07-28T22:45:24.298Z,99.90
2018-07-28T22:47:54.023Z,99.90
2018-07-28T22:50:22.717Z,99.90
2018-07-28T22:52:51.459Z,99.90
2018-07-28T22:55:20.155Z,99.90
2018-07-28T22:57:48.886Z,99.90
2018-07-28T23:00:17.625Z,99.90
2018-07-28T23:02:46.436Z,99.90
2018-07-28T23:05:15.784Z,99.90
2018-07-28T23:07:44.579Z,99.90
2018-07-28T23:10:13.257Z,99.90
2018-07-28T23:12:42.005Z,99.90
2018-07-28T23:15:10.715Z,99.90
2018-07-28T23:17:39.383Z,99.90
2018-07-28T23:20:08.079Z,99.90
2018-07-28T23:22:36.764Z,99.90
2018-07-28T23:25:06.482Z,99.90
2018-07-28T23:27:35.189Z,99.90
2018-07-28T23:30:05.551Z,99.90
2018-07-28T23:32:35.221Z,99.90
2018-07-28T23:35:03.937Z,99.90
2018-07-28T23:37:32.643Z,99.90
2018-07-28T23:40:01.420Z,99.90
2018-07-28T23:44:58.502Z,99.90
2018-07-28T23:47:28.213Z,99.90
2018-07-28T23:49:57.112Z,99.90
2018-07-28T23:52:25.779Z,99.90
2018-07-28T23:54:54.376Z,99.90
2018-07-28T23:57:23.051Z,99.90
2018-07-28T23:59:51.715Z,99.90
